Time;durP1;ratioP1;P1;durP2;ratioP2;P2;SDS_P1;SDS_P2;PMS_P1;PMS_P2;Temp;Humidity;BMP_temperature;BMP_pressure;BME280_temperature;BME280_humidity;BME280_pressure;Samples;Min_cycle;Max_cycle;Signal;HPM_P1;HPM_P2
2023/04/12 00:00:33;;;;;;;5.97;1.90;;;8.30;99.90;;;;;;4773410;30;20308;-86
2023/04/12 00:03:01;;;;;;;8.53;2.50;;;8.30;99.90;;;;;;4788479;29;20650;-86
2023/04/12 00:05:29;;;;;;;12.23;2.70;;;8.40;99.90;;;;;;4789229;30;20059;-85
2023/04/12 00:07:55;;;;;;;9.43;2.20;;;8.40;99.90;;;;;;4772613;30;20297;-86
2023/04/12 00:10:21;;;;;;;11.27;3.00;;;8.40;99.90;;;;;;4758623;30;20301;-85
2023/04/12 00:12:48;;;;;;;10.93;2.20;;;8.40;99.90;;;;;;4772665;30;20403;-87
2023/04/12 00:15:14;;;;;;;6.47;2.23;;;8.50;99.90;;;;;;4772848;30;20059;-86
2023/04/12 00:17:40;;;;;;;11.33;2.33;;;8.40;99.90;;;;;;4772572;30;20327;-86
2023/04/12 00:20:10;;;;;;;11.17;2.67;;;8.50;99.90;;;;;;4788754;30;20325;-86
2023/04/12 00:22:40;;;;;;;11.43;2.17;;;8.50;99.90;;;;;;4759070;30;20389;-86
2023/04/12 00:25:06;;;;;;;10.93;2.73;;;8.50;99.90;;;;;;4772620;30;20309;-86
2023/04/12 00:27:32;;;;;;;15.83;3.50;;;8.60;99.90;;;;;;4772730;30;20329;-85
2023/04/12 00:29:58;;;;;;;11.27;2.73;;;8.60;99.90;;;;;;4772720;30;20336;-86
2023/04/12 00:32:23;;;;;;;9.57;2.60;;;8.60;99.90;;;;;;4772495;30;20051;-86
2023/04/12 00:34:50;;;;;;;10.47;2.47;;;8.60;99.90;;;;;;4757729;30;20055;-86
2023/04/12 00:37:16;;;;;;;9.37;2.70;;;8.60;99.90;;;;;;4772367;30;20112;-86
2023/04/12 00:39:42;;;;;;;8.67;2.13;;;8.60;99.90;;;;;;4772518;29;20288;-86
2023/04/12 00:42:07;;;;;;;8.77;2.97;;;8.60;99.90;;;;;;4761262;30;20101;-86
2023/04/12 00:44:34;;;;;;;11.47;2.63;;;8.60;99.90;;;;;;4761736;30;20051;-86
2023/04/12 00:47:00;;;;;;;10.77;2.63;;;8.60;99.90;;;;;;4776640;30;20055;-86
2023/04/12 00:49:29;;;;;;;9.33;2.47;;;8.60;99.90;;;;;;4791443;29;20754;-86
2023/04/12 00:52:02;;;;;;;9.73;2.53;;;8.60;99.90;;;;;;4761261;30;20297;-86
2023/04/12 00:54:32;;;;;;;10.57;2.97;;;8.60;99.90;;;;;;4791630;29;20289;-85
2023/04/12 00:57:02;;;;;;;9.47;2.97;;;8.50;99.90;;;;;;4776524;30;20303;-86
2023/04/12 00:59:27;;;;;;;7.70;1.80;;;8.50;99.90;;;;;;4791822;30;20288;-86
2023/04/12 01:01:55;;;;;;;9.53;2.80;;;8.50;99.90;;;;;;4775621;30;20809;-86
2023/04/12 01:04:21;;;;;;;11.10;2.43;;;8.50;99.90;;;;;;4774997;30;20063;-86
2023/04/12 01:06:50;;;;;;;11.30;2.83;;;8.50;99.90;;;;;;4775493;30;20319;-86
2023/04/12 01:09:29;;;;;;;12.27;3.20;;;8.50;99.90;;;;;;4775382;30;20380;-86
2023/04/12 01:12:20;;;;;;;13.57;2.90;;;8.50;99.90;;;;;;4791375;30;20301;-87
2023/04/12 01:14:59;;;;;;;9.47;2.53;;;8.50;99.90;;;;;;4776188;30;20308;-86
2023/04/12 01:17:29;;;;;;;10.03;2.60;;;8.50;99.90;;;;;;4776195;30;20689;-87
2023/04/12 01:20:20;;;;;;;8.37;2.20;;;8.50;99.90;;;;;;4761369;30;20297;-86
2023/04/12 01:23:05;;;;;;;12.90;2.77;;;8.50;99.90;;;;;;4775528;30;20296;-86
2023/04/12 01:25:57;;;;;;;12.35;2.53;;;8.50;99.90;;;;;;4791021;30;20308;-85
2023/04/12 01:28:27;;;;;;;7.53;2.23;;;8.50;99.90;;;;;;4774921;30;20063;-85
2023/04/12 01:30:55;;;;;;;6.50;2.20;;;8.50;99.90;;;;;;4790970;30;20381;-85
2023/04/12 01:33:22;;;;;;;8.27;2.50;;;8.50;99.90;;;;;;4774937;30;20293;-85
2023/04/12 01:35:50;;;;;;;8.77;2.23;;;8.50;99.90;;;;;;4791698;29;20281;-85
2023/04/12 01:38:16;;;;;;;11.23;2.60;;;8.50;99.90;;;;;;4790891;30;20295;-86
2023/04/12 01:40:42;;;;;;;11.73;2.73;;;8.50;99.90;;;;;;4775042;30;20297;-85
2023/04/12 01:43:12;;;;;;;12.50;3.50;;;8.40;99.90;;;;;;4775705;30;20134;-85
2023/04/12 01:45:38;;;;;;;10.23;2.57;;;8.40;99.90;;;;;;4790657;29;20055;-85
2023/04/12 01:48:06;;;;;;;11.07;3.13;;;8.40;99.90;;;;;;4775157;30;20355;-85
2023/04/12 01:51:14;;;;;;;8.37;2.50;;;8.40;99.90;;;;;;4775589;30;20289;-85
2023/04/12 01:53:55;;;;;;;9.50;2.57;;;8.40;99.90;;;;;;4759569;30;20316;-85
2023/04/12 01:56:21;;;;;;;9.13;2.67;;;8.40;99.90;;;;;;4791480;30;20366;-85
2023/04/12 01:58:51;;;;;;;10.13;3.20;;;8.40;99.90;;;;;;4775387;30;20300;-85
2023/04/12 02:01:20;;;;;;;6.37;2.10;;;8.40;99.90;;;;;;4774368;30;20330;-85
2023/04/12 02:03:48;;;;;;;10.53;2.40;;;8.40;99.90;;;;;;4774034;30;20301;-85
2023/04/12 02:06:15;;;;;;;13.00;3.10;;;8.40;99.90;;;;;;4774311;30;20316;-85
2023/04/12 02:08:41;;;;;;;12.23;2.57;;;8.40;99.90;;;;;;4774555;30;20304;-86
2023/04/12 02:11:11;;;;;;;7.70;2.20;;;8.40;99.90;;;;;;4775290;30;20750;-86
2023/04/12 02:13:36;;;;;;;8.50;2.77;;;8.40;99.90;;;;;;4760154;30;20055;-85
2023/04/12 02:16:03;;;;;;;8.70;2.27;;;8.40;99.90;;;;;;4774392;30;20293;-87
2023/04/12 02:18:29;;;;;;;10.50;2.53;;;8.40;99.90;;;;;;4790205;29;20054;-86
2023/04/12 02:20:55;;;;;;;9.13;2.90;;;8.40;99.90;;;;;;4774035;30;20297;-86
2023/04/12 02:23:21;;;;;;;9.63;2.57;;;8.50;99.90;;;;;;4790747;29;20142;-86
2023/04/12 02:25:47;;;;;;;9.73;2.03;;;8.50;99.90;;;;;;4789713;30;20387;-86
2023/04/12 02:28:13;;;;;;;7.40;2.10;;;8.50;99.90;;;;;;4774446;30;20134;-85
2023/04/12 02:30:40;;;;;;;8.10;1.87;;;8.50;99.90;;;;;;4790095;30;20059;-84
2023/04/12 02:33:08;;;;;;;8.83;2.00;;;8.50;99.90;;;;;;4790022;29;20291;-86
2023/04/12 02:35:37;;;;;;;14.70;3.10;;;8.50;99.90;;;;;;4774174;30;20372;-85
2023/04/12 02:38:07;;;;;;;12.37;2.60;;;8.50;99.90;;;;;;4773878;30;20384;-86
2023/04/12 02:40:34;;;;;;;7.33;2.20;;;8.50;99.90;;;;;;4774074;30;20289;-86
2023/04/12 02:43:00;;;;;;;9.07;2.37;;;8.50;99.90;;;;;;4773875;30;20291;-86
2023/04/12 02:45:26;;;;;;;6.77;2.43;;;8.50;99.90;;;;;;4789750;30;20650;-86
2023/04/12 02:47:51;;;;;;;8.63;2.30;;;8.50;99.90;;;;;;4789713;30;20053;-87
2023/04/12 02:50:17;;;;;;;8.20;2.00;;;8.50;99.90;;;;;;4773892;30;20297;-88
2023/04/12 02:52:43;;;;;;;6.40;1.73;;;8.50;99.90;;;;;;4774360;30;20108;-87
2023/04/12 02:55:09;;;;;;;7.43;2.23;;;8.50;99.90;;;;;;4773840;30;20087;-87
2023/04/12 02:57:35;;;;;;;6.83;1.77;;;8.50;99.90;;;;;;4773603;30;20055;-87
2023/04/12 03:00:06;;;;;;;9.23;1.93;;;8.50;99.90;;;;;;4758955;30;20288;-86
2023/04/12 03:02:33;;;;;;;7.13;2.20;;;8.50;99.90;;;;;;4773897;30;20055;-86
2023/04/12 03:04:58;;;;;;;8.70;1.83;;;8.50;99.90;;;;;;4757473;30;20393;-86
2023/04/12 03:07:24;;;;;;;7.33;2.13;;;8.50;99.90;;;;;;4789486;29;20055;-87
2023/04/12 03:09:50;;;;;;;9.83;2.33;;;8.50;99.90;;;;;;4773534;30;20077;-86
2023/04/12 03:12:16;;;;;;;7.60;2.57;;;8.50;99.90;;;;;;4774066;30;20492;-86
2023/04/12 03:14:42;;;;;;;8.53;2.27;;;8.50;99.90;;;;;;4789268;30;20289;-86
2023/04/12 03:17:08;;;;;;;8.83;2.00;;;8.50;99.90;;;;;;4789266;29;20289;-85
2023/04/12 03:19:35;;;;;;;8.83;2.30;;;8.50;99.90;;;;;;4789191;29;20469;-86
2023/04/12 03:22:03;;;;;;;7.77;2.77;;;8.50;99.90;;;;;;4789140;30;20342;-86
2023/04/12 03:24:28;;;;;;;6.77;1.87;;;8.50;99.90;;;;;;4773199;30;20817;-86
2023/04/12 03:26:54;;;;;;;7.63;2.00;;;8.50;99.90;;;;;;4773180;30;20340;-87
2023/04/12 03:29:21;;;;;;;9.70;2.80;;;8.50;99.90;;;;;;4773662;30;20078;-87
2023/04/12 03:31:46;;;;;;;7.40;2.53;;;8.50;99.90;;;;;;4773401;30;20059;-87
2023/04/12 03:34:12;;;;;;;8.87;2.33;;;8.40;99.90;;;;;;4772962;30;20312;-87
2023/04/12 03:36:38;;;;;;;8.00;2.40;;;8.40;99.90;;;;;;4773887;30;20067;-88
2023/04/12 03:39:04;;;;;;;11.33;2.23;;;8.40;99.90;;;;;;4758294;30;20150;-89
2023/04/12 03:41:30;;;;;;;10.47;2.37;;;8.40;99.90;;;;;;4758033;30;20829;-89
2023/04/12 03:43:55;;;;;;;11.00;2.33;;;8.40;99.90;;;;;;4788520;29;20059;-87
2023/04/12 03:46:21;;;;;;;8.90;2.70;;;8.30;99.90;;;;;;4772721;30;20177;-87
2023/04/12 03:48:48;;;;;;;7.47;2.70;;;8.30;99.90;;;;;;4773020;30;20099;-85
2023/04/12 03:51:14;;;;;;;8.40;2.60;;;8.30;99.90;;;;;;4788990;30;20051;-86
2023/04/12 03:53:40;;;;;;;7.77;2.30;;;8.30;99.90;;;;;;4789211;30;20620;-85
2023/04/12 03:56:06;;;;;;;6.85;2.10;;;8.30;99.90;;;;;;4788618;30;20043;-85
2023/04/12 03:58:35;;;;;;;8.77;2.50;;;8.20;99.90;;;;;;4788614;30;20055;-85
2023/04/12 04:01:08;;;;;;;7.87;2.20;;;8.20;99.90;;;;;;4788557;30;20289;-84
2023/04/12 04:03:34;;;;;;;8.88;1.70;;;8.20;99.90;;;;;;4788470;29;20316;-84
2023/04/12 04:06:03;;;;;;;12.97;2.50;;;8.20;99.90;;;;;;4757654;30;20188;-84
2023/04/12 04:08:31;;;;;;;8.33;2.73;;;8.20;99.90;;;;;;4772174;30;20055;-84
2023/04/12 04:10:57;;;;;;;7.77;2.30;;;8.20;99.90;;;;;;4789007;29;20750;-82
2023/04/12 04:13:23;;;;;;;8.67;1.90;;;8.20;99.90;;;;;;4788506;30;20277;-82
2023/04/12 04:15:57;;;;;;;6.37;2.30;;;8.20;99.90;;;;;;4788179;29;20341;-82
2023/04/12 04:18:23;;;;;;;10.90;3.07;;;8.20;99.90;;;;;;4788956;30;20055;-81
2023/04/12 04:20:49;;;;;;;7.73;2.33;;;8.20;99.90;;;;;;4788329;30;20300;-80
2023/04/12 04:23:16;;;;;;;5.93;2.27;;;8.20;99.90;;;;;;4788197;29;20051;-80
2023/04/12 04:25:43;;;;;;;7.30;2.30;;;8.10;99.90;;;;;;4772756;30;20313;-79
2023/04/12 04:28:09;;;;;;;8.67;2.90;;;8.10;99.90;;;;;;4788244;30;20750;-79
2023/04/12 04:30:37;;;;;;;10.80;2.00;;;8.10;99.90;;;;;;4788331;30;20306;-78
2023/04/12 04:33:06;;;;;;;7.83;1.77;;;8.10;99.90;;;;;;4757310;30;20092;-78
2023/04/12 04:35:32;;;;;;;9.30;2.10;;;8.10;99.90;;;;;;4787909;29;20370;-77
2023/04/12 04:38:00;;;;;;;6.33;2.10;;;8.10;99.90;;;;;;4788595;30;20293;-78
2023/04/12 04:40:26;;;;;;;11.57;2.47;;;8.10;99.90;;;;;;4788136;30;20305;-77
2023/04/12 04:42:54;;;;;;;14.70;2.70;;;8.10;99.90;;;;;;4788049;29;20683;-76
2023/04/12 04:45:27;;;;;;;8.90;2.33;;;8.00;99.90;;;;;;4788036;30;20051;-77
2023/04/12 04:47:53;;;;;;;9.00;2.45;;;8.00;99.90;;;;;;4787909;30;20307;-76
2023/04/12 04:50:25;;;;;;;7.15;2.50;;;8.00;99.90;;;;;;4787892;30;20055;-77
2023/04/12 04:52:51;;;;;;;7.95;2.70;;;8.00;99.90;;;;;;4787829;30;20055;-76
2023/04/12 04:55:17;;;;;;;7.43;2.70;;;7.90;99.90;;;;;;4771931;30;20515;-76
2023/04/12 04:57:43;;;;;;;7.78;2.45;;;7.90;99.90;;;;;;4772099;30;20088;-76
2023/04/12 05:00:10;;;;;;;8.80;2.70;;;7.90;99.90;;;;;;4787682;30;20527;-76
2023/04/12 05:02:41;;;;;;;7.30;2.43;;;7.90;99.90;;;;;;4787934;30;20455;-76
2023/04/12 05:05:12;;;;;;;11.93;3.30;;;7.90;99.90;;;;;;4788448;30;20313;-76
2023/04/12 05:07:38;;;;;;;9.73;3.13;;;7.90;99.90;;;;;;4788483;30;20065;-76
2023/04/12 05:10:04;;;;;;;10.30;3.72;;;7.90;99.90;;;;;;4787918;29;20048;-77
2023/04/12 05:12:30;;;;;;;8.70;3.47;;;7.90;99.90;;;;;;4772057;30;20055;-76
2023/04/12 05:14:56;;;;;;;11.07;3.93;;;7.80;99.90;;;;;;4787910;29;20372;-76
2023/04/12 05:17:22;;;;;;;9.30;4.17;;;7.90;99.90;;;;;;4788079;30;20608;-76
2023/04/12 05:19:47;;;;;;;12.20;5.00;;;7.80;99.90;;;;;;4787815;30;20515;-76
2023/04/12 05:22:13;;;;;;;10.83;4.70;;;7.80;99.90;;;;;;4771739;30;20051;-76
2023/04/12 05:24:39;;;;;;;9.67;5.07;;;7.80;99.90;;;;;;4787745;30;20400;-76
2023/04/12 05:27:05;;;;;;;10.95;5.80;;;7.80;99.90;;;;;;4773036;30;20055;-77
2023/04/12 05:29:31;;;;;;;13.07;7.63;;;7.80;99.90;;;;;;4791026;30;20064;-76
2023/04/12 05:31:58;;;;;;;15.47;7.67;;;7.80;99.90;;;;;;4790978;30;20063;-76
2023/04/12 05:34:23;;;;;;;11.82;7.15;;;7.80;99.90;;;;;;4791421;30;20054;-76
2023/04/12 05:36:49;;;;;;;12.33;7.10;;;7.80;99.90;;;;;;4790914;30;20484;-76
2023/04/12 05:39:15;;;;;;;17.47;8.37;;;7.80;99.90;;;;;;4790900;30;20063;-76
2023/04/12 05:41:41;;;;;;;14.63;9.03;;;7.80;99.90;;;;;;4791378;30;20052;-76
2023/04/12 05:44:06;;;;;;;15.03;9.47;;;7.80;99.90;;;;;;4790418;30;20451;-77
2023/04/12 05:46:32;;;;;;;17.70;9.93;;;7.80;99.90;;;;;;4774736;30;20116;-76
2023/04/12 05:48:58;;;;;;;13.70;8.93;;;7.80;99.90;;;;;;4791277;30;20055;-76
2023/04/12 05:51:24;;;;;;;14.63;8.47;;;7.80;99.90;;;;;;4791216;30;20054;-76
2023/04/12 05:53:50;;;;;;;16.08;9.45;;;7.80;99.90;;;;;;4790698;29;20066;-76
2023/04/12 05:56:16;;;;;;;13.87;9.10;;;7.80;99.90;;;;;;4774699;30;20059;-76
2023/04/12 05:58:42;;;;;;;15.73;9.77;;;7.80;99.90;;;;;;4774534;30;20092;-77
2023/04/12 06:01:07;;;;;;;16.70;10.10;;;7.80;99.90;;;;;;4790532;30;20078;-78
2023/04/12 06:03:33;;;;;;;16.80;10.40;;;7.80;99.90;;;;;;4790960;29;20146;-77
2023/04/12 06:06:01;;;;;;;15.30;8.83;;;7.80;99.90;;;;;;4790420;30;20062;-77
2023/04/12 06:08:28;;;;;;;14.30;9.77;;;7.80;99.90;;;;;;4790942;30;20063;-77
2023/04/12 06:10:54;;;;;;;16.10;9.70;;;7.80;99.90;;;;;;4790353;29;20157;-78
2023/04/12 06:13:20;;;;;;;15.13;9.03;;;7.80;99.90;;;;;;4774428;30;20138;-78
2023/04/12 06:15:45;;;;;;;19.80;9.80;;;7.90;99.90;;;;;;4790318;30;20414;-78
2023/04/12 06:18:11;;;;;;;19.30;9.43;;;7.90;99.90;;;;;;4774332;30;20138;-79
2023/04/12 06:20:40;;;;;;;15.77;8.87;;;7.90;99.90;;;;;;4790216;30;20051;-79
2023/04/12 06:23:06;;;;;;;13.33;8.60;;;7.90;99.90;;;;;;4774197;30;20054;-80
2023/04/12 06:25:33;;;;;;;14.37;7.87;;;7.90;99.90;;;;;;4774637;30;20309;-79
2023/04/12 06:27:58;;;;;;;9.73;6.97;;;7.90;99.90;;;;;;4790098;30;20146;-79
2023/04/12 06:30:24;;;;;;;14.60;7.90;;;7.90;99.90;;;;;;4774237;30;20384;-79
2023/04/12 06:32:50;;;;;;;12.33;6.93;;;7.90;99.90;;;;;;4790004;30;20112;-80
2023/04/12 06:35:16;;;;;;;9.63;6.50;;;7.90;99.90;;;;;;4789970;30;20051;-80
2023/04/12 06:37:42;;;;;;;11.23;7.20;;;7.90;99.90;;;;;;4759806;29;20055;-80
2023/04/12 06:40:08;;;;;;;12.60;6.77;;;7.90;99.90;;;;;;4789833;30;20099;-80
2023/04/12 06:42:33;;;;;;;12.00;7.47;;;7.90;99.90;;;;;;4773927;30;20544;-80
2023/04/12 06:44:59;;;;;;;10.57;6.83;;;7.90;99.90;;;;;;4790164;30;20393;-79
2023/04/12 06:47:25;;;;;;;12.73;6.93;;;7.90;99.90;;;;;;4789628;30;20047;-79
2023/04/12 06:49:51;;;;;;;14.10;7.13;;;7.90;99.90;;;;;;4758808;30;20059;-79
2023/04/12 06:52:17;;;;;;;10.23;6.37;;;7.90;99.90;;;;;;4773758;30;20536;-79
2023/04/12 06:54:43;;;;;;;12.77;6.93;;;7.90;99.90;;;;;;4790133;30;20380;-79
2023/04/12 06:57:12;;;;;;;11.93;7.33;;;7.90;99.90;;;;;;4773752;30;20301;-79
2023/04/12 06:59:38;;;;;;;10.30;6.47;;;7.90;99.90;;;;;;4789488;30;20062;-79
2023/04/12 07:02:04;;;;;;;11.77;6.87;;;7.90;99.90;;;;;;4789535;29;20289;-78
2023/04/12 07:04:29;;;;;;;15.30;7.37;;;7.90;99.90;;;;;;4789791;29;20124;-78
2023/04/12 07:06:55;;;;;;;13.60;7.50;;;7.90;99.90;;;;;;4790121;30;20063;-78
2023/04/12 07:09:21;;;;;;;13.30;6.87;;;7.90;99.90;;;;;;4789321;30;20059;-79
2023/04/12 07:11:47;;;;;;;10.77;7.33;;;7.90;99.90;;;;;;4789341;30;20062;-78
2023/04/12 07:14:13;;;;;;;15.63;8.30;;;7.90;99.90;;;;;;4773225;30;20059;-78
2023/04/12 07:16:38;;;;;;;10.67;7.07;;;7.90;99.90;;;;;;4789530;29;20345;-79
2023/04/12 07:19:04;;;;;;;11.70;7.03;;;7.90;99.90;;;;;;4789757;29;20054;-79
2023/04/12 07:21:30;;;;;;;11.70;6.93;;;7.90;99.90;;;;;;4789382;30;20134;-80
2023/04/12 07:23:56;;;;;;;12.73;8.25;;;8.00;99.90;;;;;;4789927;29;20062;-79
2023/04/12 07:26:22;;;;;;;15.23;8.10;;;8.00;99.90;;;;;;4773238;30;20070;-80
2023/04/12 07:28:47;;;;;;;11.87;7.93;;;8.00;99.90;;;;;;4789036;30;20141;-80
2023/04/12 07:31:13;;;;;;;10.20;7.67;;;8.00;99.90;;;;;;4758361;30;20388;-80
2023/04/12 07:33:39;;;;;;;11.73;7.60;;;8.00;99.90;;;;;;4789018;30;20059;-81
2023/04/12 07:36:05;;;;;;;11.57;7.60;;;8.10;99.90;;;;;;4789207;29;20058;-81
2023/04/12 07:38:31;;;;;;;12.63;7.47;;;8.10;99.90;;;;;;4788907;30;20051;-82
2023/04/12 07:40:57;;;;;;;10.57;7.37;;;8.10;99.90;;;;;;4788987;30;20342;-82
2023/04/12 07:43:22;;;;;;;12.67;7.40;;;8.10;99.90;;;;;;4773236;30;20086;-81
2023/04/12 07:45:48;;;;;;;11.60;7.87;;;8.10;99.90;;;;;;4788988;30;20061;-82
2023/04/12 07:48:14;;;;;;;12.00;7.77;;;8.10;99.90;;;;;;4788830;30;20055;-82
2023/04/12 07:50:40;;;;;;;10.60;6.80;;;8.10;99.90;;;;;;4772348;30;20315;-83
2023/04/12 07:53:21;;;;;;;9.03;6.80;;;8.10;99.90;;;;;;4788740;30;20766;-83
2023/04/12 07:55:46;;;;;;;11.43;6.70;;;8.20;99.90;;;;;;4788452;30;20405;-82
2023/04/12 07:58:12;;;;;;;11.87;5.90;;;8.20;99.90;;;;;;4773592;30;20301;-82
2023/04/12 08:00:38;;;;;;;10.20;6.30;;;8.20;99.90;;;;;;4788535;30;20047;-82
2023/04/12 08:03:04;;;;;;;13.20;6.97;;;8.20;99.90;;;;;;4788291;29;20380;-83
2023/04/12 08:05:30;;;;;;;9.47;6.10;;;8.20;99.90;;;;;;4789240;30;20090;-82
2023/04/12 08:07:55;;;;;;;10.27;6.60;;;8.20;99.90;;;;;;4758188;30;20051;-82
2023/04/12 08:10:21;;;;;;;11.00;6.50;;;8.20;99.90;;;;;;4788450;30;20059;-82
2023/04/12 08:12:47;;;;;;;8.37;5.73;;;8.30;99.90;;;;;;4772612;30;20135;-83
2023/04/12 08:15:12;;;;;;;9.93;6.70;;;8.30;99.90;;;;;;4773438;30;20089;-82
2023/04/12 08:17:38;;;;;;;12.50;6.20;;;8.30;99.90;;;;;;4772845;30;20174;-82
2023/04/12 08:20:05;;;;;;;12.10;6.63;;;8.40;99.90;;;;;;4789159;29;20138;-82
2023/04/12 08:22:30;;;;;;;9.63;5.33;;;8.40;99.90;;;;;;4772449;30;20614;-82
2023/04/12 08:24:56;;;;;;;10.20;5.37;;;8.40;99.90;;;;;;4788240;29;20387;-81
2023/04/12 08:27:22;;;;;;;8.60;5.10;;;8.40;99.90;;;;;;4788285;30;20051;-82
2023/04/12 08:29:47;;;;;;;7.23;4.87;;;8.40;99.90;;;;;;4757725;30;20366;-83
2023/04/12 08:32:13;;;;;;;7.63;4.53;;;8.40;99.90;;;;;;4773191;30;20051;-83
2023/04/12 08:34:39;;;;;;;7.13;5.03;;;8.40;99.90;;;;;;4772903;30;20043;-83
2023/04/12 08:37:05;;;;;;;9.00;4.73;;;8.40;99.90;;;;;;4788242;29;20059;-84
2023/04/12 08:39:31;;;;;;;6.23;4.20;;;8.40;99.90;;;;;;4772497;30;20311;-85
2023/04/12 08:41:59;;;;;;;8.37;3.97;;;8.50;99.90;;;;;;4757648;30;20060;-84
2023/04/12 08:44:52;;;;;;;8.73;4.53;;;8.50;99.90;;;;;;4788098;30;20296;-85
2023/04/12 08:47:19;;;;;;;8.57;3.93;;;8.60;99.90;;;;;;4785796;30;20379;-85
2023/04/12 08:49:45;;;;;;;6.50;3.90;;;8.60;99.90;;;;;;4788102;30;20342;-85
2023/04/12 08:52:12;;;;;;;9.10;4.80;;;8.70;99.90;;;;;;4773026;30;20300;-85
2023/04/12 08:54:38;;;;;;;10.77;5.97;;;8.80;99.90;;;;;;4788127;29;20055;-86
2023/04/12 08:57:06;;;;;;;8.70;5.17;;;8.90;99.90;;;;;;4772318;30;20361;-86
2023/04/12 08:59:36;;;;;;;11.57;5.63;;;9.00;99.90;;;;;;4771949;30;20563;-86
2023/04/12 09:02:02;;;;;;;9.87;4.70;;;9.20;99.90;;;;;;4759952;30;20308;-87
2023/04/12 09:04:30;;;;;;;7.93;4.37;;;9.30;99.90;;;;;;4760644;30;20304;-87
2023/04/12 09:06:56;;;;;;;11.60;4.93;;;9.40;99.90;;;;;;4776047;30;20461;-88
2023/04/12 09:09:45;;;;;;;8.67;5.30;;;9.50;99.90;;;;;;4775616;30;20307;-88
2023/04/12 09:12:11;;;;;;;9.37;5.10;;;9.70;99.90;;;;;;4775601;30;20059;-88
2023/04/12 09:14:38;;;;;;;8.60;5.60;;;9.80;99.90;;;;;;4775528;30;20404;-88
2023/04/12 09:17:19;;;;;;;8.73;5.17;;;10.00;99.90;;;;;;4760586;30;20369;-88
2023/04/12 09:19:45;;;;;;;11.03;5.10;;;10.20;99.90;;;;;;4775486;30;20301;-88
2023/04/12 09:22:11;;;;;;;10.67;4.73;;;10.40;99.90;;;;;;4775160;30;20374;-89
2023/04/12 09:24:52;;;;;;;10.47;4.70;;;10.50;99.90;;;;;;4775724;30;20065;-89
2023/04/12 09:27:21;;;;;;;12.33;4.20;;;10.60;99.90;;;;;;4775572;30;20058;-89
2023/04/12 09:29:50;;;;;;;9.30;4.47;;;10.70;99.90;;;;;;4774893;30;20395;-88
2023/04/12 09:32:25;;;;;;;11.97;4.40;;;10.80;99.90;;;;;;4760611;30;20696;-90
2023/04/12 09:34:57;;;;;;;8.85;3.38;;;10.90;99.90;;;;;;4761150;30;20297;-89
2023/04/12 09:37:23;;;;;;;9.03;3.07;;;11.00;99.90;;;;;;4775960;30;20508;-90
2023/04/12 09:40:04;;;;;;;13.73;3.80;;;11.10;99.90;;;;;;4760550;30;20301;-89
2023/04/12 09:42:30;;;;;;;13.07;3.80;;;11.10;99.90;;;;;;4775824;30;20303;-89
2023/04/12 09:44:57;;;;;;;11.17;3.60;;;11.20;99.90;;;;;;4775633;30;20365;-89
2023/04/12 09:47:43;;;;;;;11.17;3.83;;;11.30;99.90;;;;;;4775193;30;20312;-88
2023/04/12 09:50:18;;;;;;;11.70;3.60;;;11.40;99.90;;;;;;4774813;30;20309;-89
2023/04/12 09:52:44;;;;;;;13.77;4.10;;;11.40;99.90;;;;;;4775115;30;20437;-88
2023/04/12 09:55:10;;;;;;;13.10;3.90;;;11.50;99.90;;;;;;4760003;30;20297;-88
2023/04/12 09:57:43;;;;;;;14.07;4.40;;;11.50;99.90;;;;;;4775576;30;20312;-88
2023/04/12 10:00:16;;;;;;;14.17;3.70;;;11.60;99.90;;;;;;4774980;30;20051;-89
2023/04/12 10:02:46;;;;;;;13.83;3.97;;;11.70;99.90;;;;;;4775101;30;20292;-88
2023/04/12 10:05:15;;;;;;;16.07;3.50;;;11.80;99.90;;;;;;4775411;30;20752;-89
2023/04/12 10:07:42;;;;;;;13.27;2.57;;;12.00;99.90;;;;;;4774569;30;20301;-89
2023/04/12 10:10:12;;;;;;;14.07;3.30;;;12.10;99.90;;;;;;4774510;30;20297;-89
2023/04/12 10:12:40;;;;;;;13.40;3.20;;;12.20;99.90;;;;;;4774490;30;20638;-88
2023/04/12 10:15:11;;;;;;;17.17;2.83;;;12.20;99.90;;;;;;4774454;30;20384;-88
2023/04/12 10:17:42;;;;;;;14.33;3.20;;;12.10;99.90;;;;;;4759850;30;20931;-87
2023/04/12 10:20:08;;;;;;;13.10;3.13;;;12.10;99.90;;;;;;4774460;30;20379;-88
2023/04/12 10:22:35;;;;;;;14.87;3.40;;;12.10;99.90;;;;;;4759425;30;20431;-88
2023/04/12 10:25:01;;;;;;;17.13;3.57;;;12.10;99.90;;;;;;4774154;30;20308;-88
2023/04/12 10:27:27;;;;;;;15.20;3.33;;;12.10;99.90;;;;;;4759696;30;20307;-87
2023/04/12 10:29:53;;;;;;;14.13;2.97;;;12.10;99.90;;;;;;4774899;30;20376;-87
2023/04/12 10:32:23;;;;;;;15.87;2.80;;;12.10;99.90;;;;;;4759839;30;20413;-87
2023/04/12 10:34:52;;;;;;;13.43;3.53;;;12.10;99.90;;;;;;4774048;30;20701;-87
2023/04/12 10:37:18;;;;;;;18.33;4.03;;;12.00;99.90;;;;;;4773935;30;20293;-87
2023/04/12 10:39:50;;;;;;;13.73;2.87;;;12.00;99.90;;;;;;4759515;30;20297;-87
2023/04/12 10:42:26;;;;;;;17.87;3.30;;;12.00;99.90;;;;;;4774024;30;20059;-87
2023/04/12 10:45:35;;;;;;;13.97;3.60;;;12.10;99.90;;;;;;4773833;30;20681;-87
2023/04/12 10:48:02;;;;;;;13.10;3.40;;;12.10;99.90;;;;;;4773433;30;20309;-89
2023/04/12 10:50:30;;;;;;;14.20;2.87;;;12.10;99.90;;;;;;4759518;30;20301;-89
2023/04/12 10:53:11;;;;;;;21.17;3.73;;;12.00;99.90;;;;;;4773759;30;20304;-89
2023/04/12 10:55:46;;;;;;;16.60;2.77;;;12.00;99.90;;;;;;4774361;30;20309;-89
2023/04/12 10:58:47;;;;;;;13.82;3.28;;;12.00;99.90;;;;;;4759369;30;20312;-88
2023/04/12 11:01:16;;;;;;;18.00;3.17;;;12.10;99.90;;;;;;4773508;30;20063;-88
2023/04/12 11:04:04;;;;;;;13.70;3.20;;;12.10;99.90;;;;;;4773125;30;20446;-88
2023/04/12 11:06:57;;;;;;;13.73;2.63;;;12.10;99.90;;;;;;4773233;30;20324;-88
2023/04/12 11:09:32;;;;;;;17.47;3.40;;;12.00;99.90;;;;;;4773556;30;20716;-89
2023/04/12 11:12:11;;;;;;;20.92;3.75;;;12.00;99.90;;;;;;4774081;30;20792;-88
2023/04/12 11:14:45;;;;;;;15.03;2.93;;;11.90;99.90;;;;;;4773652;30;20072;-88
2023/04/12 11:17:14;;;;;;;18.67;4.13;;;11.80;99.90;;;;;;4773789;30;20289;-88
2023/04/12 11:19:45;;;;;;;19.50;3.67;;;11.70;99.90;;;;;;4758311;30;20066;-87
2023/04/12 11:22:16;;;;;;;13.53;3.67;;;11.70;99.90;;;;;;4773929;30;20309;-88
2023/04/12 11:24:53;;;;;;;13.53;3.40;;;11.60;99.90;;;;;;4757952;30;20297;-88
2023/04/12 11:27:20;;;;;;;12.83;3.57;;;11.50;99.90;;;;;;4773495;30;20353;-89
2023/04/12 11:29:53;;;;;;;17.80;3.60;;;11.50;99.90;;;;;;4758576;30;20304;-87
2023/04/12 11:32:20;;;;;;;16.53;3.60;;;11.50;99.90;;;;;;4758058;30;20305;-88
2023/04/12 11:34:46;;;;;;;14.10;3.60;;;11.60;99.90;;;;;;4772790;30;20376;-88
2023/04/12 11:37:12;;;;;;;18.07;3.93;;;11.60;99.90;;;;;;4772713;30;20385;-88
2023/04/12 11:39:40;;;;;;;19.37;3.93;;;11.70;99.90;;;;;;4789024;30;20058;-87
2023/04/12 11:42:11;;;;;;;17.67;4.07;;;11.80;99.90;;;;;;4758151;30;20307;-88
2023/04/12 11:44:39;;;;;;;23.37;3.50;;;11.80;99.90;;;;;;4773284;30;20354;-88
2023/04/12 11:47:05;;;;;;;16.57;3.23;;;12.00;99.90;;;;;;4757536;30;20349;-87
2023/04/12 11:49:31;;;;;;;17.93;3.60;;;12.10;99.90;;;;;;4772842;30;20309;-88
2023/04/12 11:52:04;;;;;;;15.13;3.00;;;12.20;99.90;;;;;;4773264;30;20488;-88
2023/04/12 11:54:31;;;;;;;18.07;3.90;;;12.20;99.90;;;;;;4758188;30;20055;-89
2023/04/12 11:56:57;;;;;;;13.97;3.73;;;12.20;99.90;;;;;;4757627;30;20315;-90
2023/04/12 11:59:33;;;;;;;19.83;3.17;;;12.20;99.90;;;;;;4773038;30;20774;-90
2023/04/12 12:02:03;;;;;;;13.50;3.80;;;12.30;99.90;;;;;;4772749;30;20775;-90
2023/04/12 12:04:30;;;;;;;17.30;3.53;;;12.30;99.90;;;;;;4771960;30;20392;-90
2023/04/12 12:06:57;;;;;;;15.80;3.77;;;12.20;99.90;;;;;;4772365;30;20375;-89
2023/04/12 12:09:24;;;;;;;18.60;4.17;;;12.10;99.90;;;;;;4773311;30;20393;-90
2023/04/12 12:11:50;;;;;;;14.63;3.07;;;12.10;99.90;;;;;;4773408;30;20657;-90
2023/04/12 12:14:21;;;;;;;16.40;3.10;;;12.00;99.90;;;;;;4758088;30;20342;-90
2023/04/12 12:16:55;;;;;;;15.53;3.80;;;12.00;99.90;;;;;;4772686;30;20824;-90
2023/04/12 12:19:38;;;;;;;11.43;2.85;;;12.00;99.90;;;;;;4757635;30;20292;-90
2023/04/12 12:22:21;;;;;;;14.83;2.80;;;12.00;99.90;;;;;;4788513;30;20051;-89
2023/04/12 12:24:58;;;;;;;13.23;2.73;;;12.00;99.90;;;;;;4772467;30;20333;-89
2023/04/12 12:27:34;;;;;;;16.93;2.90;;;12.00;99.90;;;;;;4757442;30;20786;-90
2023/04/12 12:30:01;;;;;;;11.73;2.23;;;11.90;99.90;;;;;;4773151;30;20304;-89
2023/04/12 12:32:39;;;;;;;11.80;2.80;;;11.80;99.90;;;;;;4757515;30;20303;-89
2023/04/12 12:35:09;;;;;;;12.37;3.13;;;11.70;99.90;;;;;;4772464;30;20300;-89
2023/04/12 12:37:36;;;;;;;11.63;3.10;;;11.60;99.90;;;;;;4775515;30;20380;-89
2023/04/12 12:40:12;;;;;;;8.83;3.10;;;11.60;99.90;;;;;;4775840;30;20288;-88
2023/04/12 12:43:07;;;;;;;20.87;3.87;;;11.60;99.90;;;;;;4761401;30;20308;-89
2023/04/12 12:45:33;;;;;;;12.07;2.50;;;11.60;99.90;;;;;;4758998;30;20313;-89
2023/04/12 12:48:01;;;;;;;10.03;2.73;;;11.60;99.90;;;;;;4761669;30;20313;-89
2023/04/12 12:50:32;;;;;;;12.97;2.50;;;11.70;99.90;;;;;;4761076;30;20584;-89
2023/04/12 12:53:02;;;;;;;11.73;2.60;;;11.70;99.90;;;;;;4776463;30;20312;-90
2023/04/12 12:55:29;;;;;;;14.67;2.43;;;11.70;99.90;;;;;;4746644;30;20320;-90